Hudson — CGDG — position and weather

sailwx.info

Track history (hours):
 
Tides and Currents Weather Stations Pressure Air Temp Water Temp Dewpoint Dewpoint Depression Visibility Wind Speed Wind Dir Waves Ship Positions

Oceanographic research ship Hudson (Canada)

Detailed information on ship capabilities available from University of Delaware's Ocean Information Center.

Last reported at 2016-Dec-02 17:00 UTC. Time now 2016-Dec-02 18:05 UTC.
Position N 44°42' W 063°36'.

Length 85.03 m; beam 15.2 m; draft 6.28 m.

Type: Ship. MMSI: 316024000.

Wind from 280 at 23 knots

Barometer 999.7 mb
Air temperature 4.7 ° C
Dewpoint 4.5 ° C

Date/timePositionNaut miles runAvg speedWind from/ knotsBaromVisibWave heightAir tempDewpointWater temp
2016-Dec-02 17:00N 44°42' W 063°36'0 0.0 280 / 23999.7 4.7 4.5
2016-Dec-02 15:00N 44°42' W 063°36'0 0.0 290 / 23999.8 3.7 3.6
2016-Dec-02 14:00N 44°42' W 063°36'0 0.0 270 / 18999.7 3.6 3.5
2016-Dec-02 12:00N 44°42' W 063°36'0 0.0 270 / 16998.3 3.7 3.7
2016-Dec-02 10:00N 44°42' W 063°36'0 0.0 270 / 15996.8 4.5 4.4
2016-Dec-02 07:00N 44°42' W 063°36'0 0.0 270 / 18995.3 4.1 4.1
2016-Dec-02 06:00N 44°42' W 063°36'0 0.0 270 / 20994.4 4.4 4.4
2016-Dec-02 03:00N 44°42' W 063°36'0 0.0 230 / 10991.5 8.1 8.3
2016-Dec-02 01:00N 44°42' W 063°36'0 0.0 140 / 6991.3 8.7 9.0
2016-Dec-01 19:00N 44°42' W 063°36'0 0.0 130 / 17997.7 7.3 7.4
2016-Dec-01 15:00N 44°42' W 063°36'0 0.0 120 / 161006.7 5.1 5.2
2016-Dec-01 12:00N 44°42' W 063°36'0 0.0 120 / 121013.8 4.5 4.6
2016-Dec-01 10:00N 44°42' W 063°36'0 0.0 090 / 111016.0 2.5 2.5
2016-Dec-01 08:00N 44°42' W 063°36'0 0.0 080 / 101017.5 1.9 1.9
2016-Dec-01 06:00N 44°42' W 063°36'0 0.0 080 / 71019.0 1.7 1.6
2016-Dec-01 03:00N 44°42' W 063°36'0 0.0 090 / 61020.5 1.6 1.5
2016-Dec-01 01:00N 44°42' W 063°36'0 0.0 030 / 21021.4 1.6 1.6
2016-Dec-01 00:00N 44°42' W 063°36'0 0.0 050 / 31020.7 1.6 1.6
2016-Nov-30 21:00N 44°42' W 063°36'0 0.0 360 / 41018.3 2.5 2.5
2016-Nov-30 20:00N 44°42' W 063°36'0 0.0 010 / 71016.7 2.7 2.7
2016-Nov-30 19:00N 44°42' W 063°36'0 0.0 010 / 71015.8 2.5 2.5
2016-Nov-30 16:00N 44°42' W 063°36'0 0.0 360 / 71012.3 2.5 2.5
2016-Nov-30 14:00N 44°42' W 063°36'0 0.0 010 / 91009.5 3.1 3.2
2016-Nov-30 08:00N 44°42' W 063°36'0 0.0 130 / 141016.9 3.3 3.3
2016-Nov-30 07:00N 44°42' W 063°36'0 0.0 130 / 101019.6 2.6 2.7
2016-Nov-30 05:00N 44°42' W 063°36'0 0.0 100 / 71021.8 2.1 2.1
2016-Nov-30 03:00N 44°42' W 063°36'0 0.0 100 / 31023.7 2.0 1.9
2016-Nov-30 02:00N 44°42' W 063°36'0 0.0 120 / 41024.7 2.1 2.0
2016-Nov-30 01:00N 44°42' W 063°36'0 0.0 100 / 31025.3 2.3 2.1
2016-Nov-29 22:00N 44°42' W 063°36'0 0.0 020 / 21025.7 2.5 2.4
2016-Nov-29 21:00N 44°42' W 063°36'0 0.0 010 / 21025.0 2.6 2.5
2016-Nov-29 19:00N 44°42' W 063°36'0 0.0 330 / 61024.1 3.2 3.0
2016-Nov-29 17:00N 44°42' W 063°36'0 0.0 310 / 91024.6 2.9 2.8
2016-Nov-29 11:00N 44°42' W 063°36'0 0.0 300 / 111022.2 -0.1-0.2
2016-Nov-29 10:00N 44°42' W 063°36'0 0.0 300 / 111021.1 0.1-0.0
2016-Nov-29 09:00N 44°42' W 063°36'0 0.0 290 / 121020.6 0.3 0.1
2016-Nov-29 03:00N 44°42' W 063°36'0 0.0 280 / 121015.8 2.8 2.7
2016-Nov-29 02:00N 44°42' W 063°36'0 0.0 290 / 131014.9 3.1 3.0
2016-Nov-28 23:00N 44°42' W 063°36'0 0.0 310 / 71012.4 3.3 3.2
2016-Nov-28 19:00N 44°42' W 063°36'0 0.0 280 / 121010.3 3.1 3.0
2016-Nov-28 18:00N 44°42' W 063°36'0 0.0 280 / 191009.8 3.1 3.0
2016-Nov-28 17:00N 44°42' W 063°36'0 0.0 280 / 181009.6 3.0 2.8
2016-Nov-28 16:00N 44°42' W 063°36'0 0.0 270 / 171009.8 2.3 2.2
2016-Nov-28 13:00N 44°42' W 063°36'0 0.0 260 / 141009.3 1.2 1.1
2016-Nov-28 12:00N 44°42' W 063°36'0 0.0 270 / 111008.7 1.0 0.9
2016-Nov-28 08:00N 44°42' W 063°36'0 0.0 260 / 111007.1 0.4 0.4
2016-Nov-28 07:00N 44°42' W 063°36'0 0.0 260 / 101007.2 0.4 0.3
2016-Nov-28 06:00N 44°42' W 063°36'0 0.0 270 / 111006.8 0.5 0.5
2016-Nov-28 03:00N 44°42' W 063°36'0 0.0 280 / 161005.5 1.1 1.1
2016-Nov-28 02:00N 44°42' W 063°36'0 0.0 290 / 191004.9 1.2 1.1
2016-Nov-28 01:00N 44°42' W 063°36'0 0.0 290 / 211004.4 1.7 1.6
2016-Nov-28 00:00N 44°42' W 063°36'0 0.0 270 / 201003.9 1.5 1.5
2016-Nov-27 22:00N 44°42' W 063°36'6 6.0 290 / 221001.5 1.8 1.8
2016-Nov-27 21:00N 44°36' W 063°36'4 4.3 310 / 261000.1 2.1 2.2
2016-Nov-27 20:00N 44°36' W 063°30'30 7.5 320 / 34998.9 2.7 2.7
2016-Nov-27 16:00N 44°36' W 062°48'9 8.5 340 / 42991.7 2.6 2.8
2016-Nov-27 15:00N 44°36' W 062°36'9 8.5 360 / 42993.6 3.6 3.7
2016-Nov-27 14:00N 44°36' W 062°24'1414.1 020 / 39996.0 5.0 5.1
2016-Nov-27 13:00N 44°42' W 062°06'9 8.5 030 / 35998.2 4.5 4.6
2016-Nov-27 12:00N 44°42' W 061°54'1010.4 030 / 34999.7 4.9 5.0
2016-Nov-27 11:00N 44°48' W 061°42'9 8.5 040 / 211002.2 5.5 5.6
2016-Nov-27 10:00N 44°48' W 061°30'3010.1 050 / 141006.2 5.5 5.5
2016-Nov-27 07:00N 44°54' W 060°48'2110.4 060 / 251013.7 7.7 7.7
2016-Nov-27 05:00N 45°06' W 060°24'8 8.5 070 / 241015.9 7.3 7.2
2016-Nov-27 04:00N 45°06' W 060°12'1414.0 070 / 231018.0 5.0 4.9
2016-Nov-27 03:00N 45°12' W 059°54'18 9.0 080 / 211018.8 4.5 4.4
2016-Nov-27 01:00N 45°18' W 059°30'38 9.6 080 / 161021.8 4.1 4.0
2016-Nov-26 21:00N 45°24' W 058°36'1010.3 080 / 51022.9 3.9 3.8
2016-Nov-26 20:00N 45°30' W 058°24'18 8.9 070 / 41022.8 3.7 3.7
2016-Nov-26 18:00N 45°36' W 058°00'18 8.9 330 / 31022.8 3.4 3.4
2016-Nov-26 16:00N 45°42' W 057°36'8 8.4 260 / 31023.4 4.0 3.9
2016-Nov-26 15:00N 45°42' W 057°24'8 8.4 290 / 41024.2 3.8 3.7
2016-Nov-26 14:00N 45°42' W 057°12'1413.9 300 / 71024.2 4.2 4.1
2016-Nov-26 13:00N 45°48' W 056°54'14 6.9 310 / 101023.8 4.2 4.1
2016-Nov-26 11:00N 45°54' W 056°36'8 8.4 310 / 101023.5 4.0 3.8
2016-Nov-26 10:00N 45°54' W 056°24'17 8.4 300 / 101023.2 4.0 3.9
2016-Nov-26 08:00N 45°54' W 056°00'1010.3 280 / 111023.2 4.2 4.0
2016-Nov-26 07:00N 46°00' W 055°48'1010.3 270 / 91023.2 4.0 3.8
2016-Nov-26 06:00N 46°06' W 055°36'34 8.4 290 / 81023.4 3.7 3.5
2016-Nov-26 02:00N 46°12' W 054°48'1010.2 320 / 71023.0 3.0 2.8
2016-Nov-26 01:00N 46°18' W 054°36'14 6.9 330 / 121023.1 2.7 2.5
2016-Nov-25 23:00N 46°24' W 054°18'26 8.5 330 / 161022.6 2.3 2.1
2016-Nov-25 20:00N 46°30' W 053°42'8 8.3 330 / 181020.4 1.9 1.7
2016-Nov-25 19:00N 46°30' W 053°30'1413.8 340 / 211019.7 2.2 1.9
2016-Nov-25 18:00N 46°36' W 053°12'34 8.5 340 / 201019.1 2.1 1.9
2016-Nov-25 14:00N 47°06' W 052°48'1312.7 350 / 151018.4 1.7 1.7
2016-Nov-25 13:00N 47°18' W 052°42'6 6.2 350 / 131017.5 2.2 2.1
2016-Nov-25 12:06N 47°23' W 052°39'11 6.5
2016-Nov-25 10:22N 47°34' W 052°42'2 5.3
2016-Nov-25 10:00N 47°36' W 052°42'2 3.4 330 / 41016.4 1.9 1.8
2016-Nov-25 09:22N 47°34' W 052°42'2 5.8
2016-Nov-25 09:00N 47°36' W 052°42'2 4.0 360 / 21016.0 2.1 2.0
2016-Nov-25 08:28N 47°34' W 052°42'2 4.6
2016-Nov-25 08:00N 47°36' W 052°42'2 3.7 340 / 41015.6 2.2 2.1
2016-Nov-25 07:25N 47°34' W 052°42'0 0.0
2016-Nov-25 06:28N 47°34' W 052°42'0 0.0
2016-Nov-25 05:28N 47°34' W 052°42'2 4.6
2016-Nov-25 05:00N 47°36' W 052°42'2 4.0 340 / 31014.3 2.5 2.4
2016-Nov-25 04:28N 47°34' W 052°42'0 0.0
2016-Nov-25 03:28N 47°34' W 052°42'0 0.0
2016-Nov-25 02:28N 47°34' W 052°42'2 4.6
2016-Nov-25 02:00N 47°36' W 052°42'2 2.9 360 / 41014.4 2.4 2.5
2016-Nov-25 01:16N 47°34' W 052°42'2 8.0
2016-Nov-25 01:00N 47°36' W 052°42'2 4.4 360 / 51014.7 2.8 2.8
2016-Nov-25 00:31N 47°34' W 052°42'2 0.8
2016-Nov-24 22:00N 47°36' W 052°42'2 0.6 010 / 31013.4 2.3 2.4
2016-Nov-24 18:07N 47°34' W 052°42'2 1.0
2016-Nov-24 16:00N 47°36' W 052°42'0 0.0 020 / 51012.3 2.3 2.3
2016-Nov-24 14:00N 47°36' W 052°42'0 0.0 020 / 91012.3 3.7 3.8
2016-Nov-24 13:00N 47°36' W 052°42'0 0.0 020 / 61012.0 3.8 3.9
2016-Nov-24 12:00N 47°36' W 052°42'2 4.0 020 / 71011.4 4.2 4.4
2016-Nov-24 11:28N 47°34' W 052°42'2 4.6
2016-Nov-24 11:00N 47°36' W 052°42'0 0.0 020 / 31011.0 4.2 4.3
2016-Nov-24 10:00N 47°36' W 052°42'0 0.0 220 / 31010.6 2.4 2.5
2016-Nov-24 07:00N 47°36' W 052°42'2 2.9 210 / 31009.4 2.2 2.4
2016-Nov-24 06:16N 47°34' W 052°42'2 1.7
2016-Nov-24 05:00N 47°36' W 052°42'2 1.2 210 / 11009.1 3.8 3.9
2016-Nov-24 03:10N 47°34' W 052°42'212.7
2016-Nov-24 03:00N 47°36' W 052°42'2 3.4 190 / 11009.4 3.1 3.2
2016-Nov-24 02:22N 47°34' W 052°42'2 5.8
2016-Nov-24 02:00N 47°36' W 052°42'2 4.0 190 / 31009.6 2.9 3.0
2016-Nov-24 01:28N 47°34' W 052°42'0 0.0
2016-Nov-24 00:25N 47°34' W 052°42'2 5.1
2016-Nov-24 00:00N 47°36' W 052°42'0 0.0 200 / 31009.5 3.7 3.7
2016-Nov-23 23:00N 47°36' W 052°42'0 0.0 210 / 51009.0 4.3 4.3
2016-Nov-23 21:00N 47°36' W 052°42'0 0.0 200 / 61007.9 5.3 5.2
2016-Nov-23 20:00N 47°36' W 052°42'0 0.0 210 / 71006.8 6.5 6.5
2016-Nov-23 18:00N 47°36' W 052°42'0 0.0 220 / 81004.7 8.3 8.3
2016-Nov-23 16:00N 47°36' W 052°42'0 0.0 240 / 61003.5 9.6 9.7
2016-Nov-23 10:00N 47°36' W 052°42'2 1.2 220 / 31000.7 10.110.4
2016-Nov-23 08:16N 47°34' W 052°42'2 7.9
2016-Nov-23 08:00N 47°36' W 052°42'2 3.1 210 / 4999.7 9.910.2
2016-Nov-23 07:19N 47°34' W 052°42'0 0.0
2016-Nov-23 06:22N 47°34' W 052°42'2 5.8
2016-Nov-23 06:00N 47°36' W 052°42'0 0.0 220 / 31000.6 10.911.3
2016-Nov-23 04:00N 47°36' W 052°42'2 2.4 310 / 11001.7 9.710.1
2016-Nov-23 03:07N 47°34' W 052°42'218.0
2016-Nov-23 03:00N 47°36' W 052°42'0 0.0 070 / 91003.4 9.0 9.3
2016-Nov-23 01:00N 47°36' W 052°42'0 0.0 090 / 11005.8 9.910.3
2016-Nov-23 00:00N 47°36' W 052°42'0 0.0 360 / 21006.9 9.3 9.7
2016-Nov-22 23:00N 47°36' W 052°42'0 0.0 030 / 21007.1 10.010.4
2016-Nov-22 22:00N 47°36' W 052°42'0 0.0 050 / 51006.9 8.9 9.2
2016-Nov-22 21:00N 47°36' W 052°42'0 0.0 1007.5 12.913.2
2016-Nov-22 20:00N 47°36' W 052°42'0 0.0 230 / 11007.2 14.214.5
2016-Nov-22 19:00N 47°36' W 052°42'0 0.0 210 / 81007.3 15.115.4
2016-Nov-22 18:00N 47°36' W 052°42'4 4.0 210 / 91006.9 15.415.7
2016-Nov-22 17:00N 47°36' W 052°36'   160 / 161006.8 8.9 9.3
Track history (hours):
 
Tides and Currents Weather Stations Pressure Air Temp Water Temp Dewpoint Dewpoint Depression Visibility Wind Speed Wind Dir Waves Ship Positions

Oceanographic research ship Hudson (Canada)

Detailed information on ship capabilities available from University of Delaware's Ocean Information Center.

Last reported at 2016-Dec-02 17:00 UTC. Time now 2016-Dec-02 18:05 UTC.
Position N 44°42' W 063°36'.

Length 85.03 m; beam 15.2 m; draft 6.28 m.

Type: Ship. MMSI: 316024000.

Wind from 280 at 23 knots

Barometer 999.7 mb
Air temperature 4.7 ° C
Dewpoint 4.5 ° C

Date/timePositionNaut miles runAvg speedWind from/ knotsBaromVisibWave heightAir tempDewpointWater temp
2016-Dec-02 17:00N 44°42' W 063°36'0 0.0 280 / 23999.7 4.7 4.5
2016-Dec-02 15:00N 44°42' W 063°36'0 0.0 290 / 23999.8 3.7 3.6
2016-Dec-02 14:00N 44°42' W 063°36'0 0.0 270 / 18999.7 3.6 3.5
2016-Dec-02 12:00N 44°42' W 063°36'0 0.0 270 / 16998.3 3.7 3.7
2016-Dec-02 10:00N 44°42' W 063°36'0 0.0 270 / 15996.8 4.5 4.4
2016-Dec-02 07:00N 44°42' W 063°36'0 0.0 270 / 18995.3 4.1 4.1
2016-Dec-02 06:00N 44°42' W 063°36'0 0.0 270 / 20994.4 4.4 4.4
2016-Dec-02 03:00N 44°42' W 063°36'0 0.0 230 / 10991.5 8.1 8.3
2016-Dec-02 01:00N 44°42' W 063°36'0 0.0 140 / 6991.3 8.7 9.0
2016-Dec-01 19:00N 44°42' W 063°36'0 0.0 130 / 17997.7 7.3 7.4
2016-Dec-01 15:00N 44°42' W 063°36'0 0.0 120 / 161006.7 5.1 5.2
2016-Dec-01 12:00N 44°42' W 063°36'0 0.0 120 / 121013.8 4.5 4.6
2016-Dec-01 10:00N 44°42' W 063°36'0 0.0 090 / 111016.0 2.5 2.5
2016-Dec-01 08:00N 44°42' W 063°36'0 0.0 080 / 101017.5 1.9 1.9
2016-Dec-01 06:00N 44°42' W 063°36'0 0.0 080 / 71019.0 1.7 1.6
2016-Dec-01 03:00N 44°42' W 063°36'0 0.0 090 / 61020.5 1.6 1.5
2016-Dec-01 01:00N 44°42' W 063°36'0 0.0 030 / 21021.4 1.6 1.6
2016-Dec-01 00:00N 44°42' W 063°36'0 0.0 050 / 31020.7 1.6 1.6
2016-Nov-30 21:00N 44°42' W 063°36'0 0.0 360 / 41018.3 2.5 2.5
2016-Nov-30 20:00N 44°42' W 063°36'0 0.0 010 / 71016.7 2.7 2.7
2016-Nov-30 19:00N 44°42' W 063°36'0 0.0 010 / 71015.8 2.5 2.5
2016-Nov-30 16:00N 44°42' W 063°36'0 0.0 360 / 71012.3 2.5 2.5
2016-Nov-30 14:00N 44°42' W 063°36'0 0.0 010 / 91009.5 3.1 3.2
2016-Nov-30 08:00N 44°42' W 063°36'0 0.0 130 / 141016.9 3.3 3.3
2016-Nov-30 07:00N 44°42' W 063°36'0 0.0 130 / 101019.6 2.6 2.7
2016-Nov-30 05:00N 44°42' W 063°36'0 0.0 100 / 71021.8 2.1 2.1
2016-Nov-30 03:00N 44°42' W 063°36'0 0.0 100 / 31023.7 2.0 1.9
2016-Nov-30 02:00N 44°42' W 063°36'0 0.0 120 / 41024.7 2.1 2.0
2016-Nov-30 01:00N 44°42' W 063°36'0 0.0 100 / 31025.3 2.3 2.1
2016-Nov-29 22:00N 44°42' W 063°36'0 0.0 020 / 21025.7 2.5 2.4
2016-Nov-29 21:00N 44°42' W 063°36'0 0.0 010 / 21025.0 2.6 2.5
2016-Nov-29 19:00N 44°42' W 063°36'0 0.0 330 / 61024.1 3.2 3.0
2016-Nov-29 17:00N 44°42' W 063°36'0 0.0 310 / 91024.6 2.9 2.8
2016-Nov-29 11:00N 44°42' W 063°36'0 0.0 300 / 111022.2 -0.1-0.2
2016-Nov-29 10:00N 44°42' W 063°36'0 0.0 300 / 111021.1 0.1-0.0
2016-Nov-29 09:00N 44°42' W 063°36'0 0.0 290 / 121020.6 0.3 0.1
2016-Nov-29 03:00N 44°42' W 063°36'0 0.0 280 / 121015.8 2.8 2.7
2016-Nov-29 02:00N 44°42' W 063°36'0 0.0 290 / 131014.9 3.1 3.0
2016-Nov-28 23:00N 44°42' W 063°36'0 0.0 310 / 71012.4 3.3 3.2
2016-Nov-28 19:00N 44°42' W 063°36'0 0.0 280 / 121010.3 3.1 3.0
2016-Nov-28 18:00N 44°42' W 063°36'0 0.0 280 / 191009.8 3.1 3.0
2016-Nov-28 17:00N 44°42' W 063°36'0 0.0 280 / 181009.6 3.0 2.8
2016-Nov-28 16:00N 44°42' W 063°36'0 0.0 270 / 171009.8 2.3 2.2
2016-Nov-28 13:00N 44°42' W 063°36'0 0.0 260 / 141009.3 1.2 1.1
2016-Nov-28 12:00N 44°42' W 063°36'0 0.0 270 / 111008.7 1.0 0.9
2016-Nov-28 08:00N 44°42' W 063°36'0 0.0 260 / 111007.1 0.4 0.4
2016-Nov-28 07:00N 44°42' W 063°36'0 0.0 260 / 101007.2 0.4 0.3
2016-Nov-28 06:00N 44°42' W 063°36'0 0.0 270 / 111006.8 0.5 0.5
2016-Nov-28 03:00N 44°42' W 063°36'0 0.0 280 / 161005.5 1.1 1.1
2016-Nov-28 02:00N 44°42' W 063°36'0 0.0 290 / 191004.9 1.2 1.1
2016-Nov-28 01:00N 44°42' W 063°36'0 0.0 290 / 211004.4 1.7 1.6
2016-Nov-28 00:00N 44°42' W 063°36'0 0.0 270 / 201003.9 1.5 1.5
2016-Nov-27 22:00N 44°42' W 063°36'6 6.0 290 / 221001.5 1.8 1.8
2016-Nov-27 21:00N 44°36' W 063°36'4 4.3 310 / 261000.1 2.1 2.2
2016-Nov-27 20:00N 44°36' W 063°30'30 7.5 320 / 34998.9 2.7 2.7
2016-Nov-27 16:00N 44°36' W 062°48'9 8.5 340 / 42991.7 2.6 2.8
2016-Nov-27 15:00N 44°36' W 062°36'9 8.5 360 / 42993.6 3.6 3.7
2016-Nov-27 14:00N 44°36' W 062°24'1414.1 020 / 39996.0 5.0 5.1
2016-Nov-27 13:00N 44°42' W 062°06'9 8.5 030 / 35998.2 4.5 4.6
2016-Nov-27 12:00N 44°42' W 061°54'1010.4 030 / 34999.7 4.9 5.0
2016-Nov-27 11:00N 44°48' W 061°42'9 8.5 040 / 211002.2 5.5 5.6
2016-Nov-27 10:00N 44°48' W 061°30'3010.1 050 / 141006.2 5.5 5.5
2016-Nov-27 07:00N 44°54' W 060°48'2110.4 060 / 251013.7 7.7 7.7
2016-Nov-27 05:00N 45°06' W 060°24'8 8.5 070 / 241015.9 7.3 7.2
2016-Nov-27 04:00N 45°06' W 060°12'1414.0 070 / 231018.0 5.0 4.9
2016-Nov-27 03:00N 45°12' W 059°54'18 9.0 080 / 211018.8 4.5 4.4
2016-Nov-27 01:00N 45°18' W 059°30'38 9.6 080 / 161021.8 4.1 4.0
2016-Nov-26 21:00N 45°24' W 058°36'1010.3 080 / 51022.9 3.9 3.8
2016-Nov-26 20:00N 45°30' W 058°24'18 8.9 070 / 41022.8 3.7 3.7
2016-Nov-26 18:00N 45°36' W 058°00'18 8.9 330 / 31022.8 3.4 3.4
2016-Nov-26 16:00N 45°42' W 057°36'8 8.4 260 / 31023.4 4.0 3.9
2016-Nov-26 15:00N 45°42' W 057°24'8 8.4 290 / 41024.2 3.8 3.7
2016-Nov-26 14:00N 45°42' W 057°12'1413.9 300 / 71024.2 4.2 4.1
2016-Nov-26 13:00N 45°48' W 056°54'14 6.9 310 / 101023.8 4.2 4.1
2016-Nov-26 11:00N 45°54' W 056°36'8 8.4 310 / 101023.5 4.0 3.8
2016-Nov-26 10:00N 45°54' W 056°24'17 8.4 300 / 101023.2 4.0 3.9
2016-Nov-26 08:00N 45°54' W 056°00'1010.3 280 / 111023.2 4.2 4.0
2016-Nov-26 07:00N 46°00' W 055°48'1010.3 270 / 91023.2 4.0 3.8
2016-Nov-26 06:00N 46°06' W 055°36'34 8.4 290 / 81023.4 3.7 3.5
2016-Nov-26 02:00N 46°12' W 054°48'1010.2 320 / 71023.0 3.0 2.8
2016-Nov-26 01:00N 46°18' W 054°36'14 6.9 330 / 121023.1 2.7 2.5
2016-Nov-25 23:00N 46°24' W 054°18'26 8.5 330 / 161022.6 2.3 2.1
2016-Nov-25 20:00N 46°30' W 053°42'8 8.3 330 / 181020.4 1.9 1.7
2016-Nov-25 19:00N 46°30' W 053°30'1413.8 340 / 211019.7 2.2 1.9
2016-Nov-25 18:00N 46°36' W 053°12'34 8.5 340 / 201019.1 2.1 1.9
2016-Nov-25 14:00N 47°06' W 052°48'1312.7 350 / 151018.4 1.7 1.7
2016-Nov-25 13:00N 47°18' W 052°42'6 6.2 350 / 131017.5 2.2 2.1
2016-Nov-25 12:06N 47°23' W 052°39'11 6.5
2016-Nov-25 10:22N 47°34' W 052°42'2 5.3
2016-Nov-25 10:00N 47°36' W 052°42'2 3.4 330 / 41016.4 1.9 1.8
2016-Nov-25 09:22N 47°34' W 052°42'2 5.8
2016-Nov-25 09:00N 47°36' W 052°42'2 4.0 360 / 21016.0 2.1 2.0
2016-Nov-25 08:28N 47°34' W 052°42'2 4.6
2016-Nov-25 08:00N 47°36' W 052°42'2 3.7 340 / 41015.6 2.2 2.1
2016-Nov-25 07:25N 47°34' W 052°42'0 0.0
2016-Nov-25 06:28N 47°34' W 052°42'0 0.0
2016-Nov-25 05:28N 47°34' W 052°42'2 4.6
2016-Nov-25 05:00N 47°36' W 052°42'2 4.0 340 / 31014.3 2.5 2.4
2016-Nov-25 04:28N 47°34' W 052°42'0 0.0
2016-Nov-25 03:28N 47°34' W 052°42'0 0.0
2016-Nov-25 02:28N 47°34' W 052°42'2 4.6
2016-Nov-25 02:00N 47°36' W 052°42'2 2.9 360 / 41014.4 2.4 2.5
2016-Nov-25 01:16N 47°34' W 052°42'2 8.0
2016-Nov-25 01:00N 47°36' W 052°42'2 4.4 360 / 51014.7 2.8 2.8
2016-Nov-25 00:31N 47°34' W 052°42'2 0.8
2016-Nov-24 22:00N 47°36' W 052°42'2 0.6 010 / 31013.4 2.3 2.4
2016-Nov-24 18:07N 47°34' W 052°42'2 1.0
2016-Nov-24 16:00N 47°36' W 052°42'0 0.0 020 / 51012.3 2.3 2.3
2016-Nov-24 14:00N 47°36' W 052°42'0 0.0 020 / 91012.3 3.7 3.8
2016-Nov-24 13:00N 47°36' W 052°42'0 0.0 020 / 61012.0 3.8 3.9
2016-Nov-24 12:00N 47°36' W 052°42'2 4.0 020 / 71011.4 4.2 4.4
2016-Nov-24 11:28N 47°34' W 052°42'2 4.6
2016-Nov-24 11:00N 47°36' W 052°42'0 0.0 020 / 31011.0 4.2 4.3
2016-Nov-24 10:00N 47°36' W 052°42'0 0.0 220 / 31010.6 2.4 2.5
2016-Nov-24 07:00N 47°36' W 052°42'2 2.9 210 / 31009.4 2.2 2.4
2016-Nov-24 06:16N 47°34' W 052°42'2 1.7
2016-Nov-24 05:00N 47°36' W 052°42'2 1.2 210 / 11009.1 3.8 3.9
2016-Nov-24 03:10N 47°34' W 052°42'212.7
2016-Nov-24 03:00N 47°36' W 052°42'2 3.4 190 / 11009.4 3.1 3.2
2016-Nov-24 02:22N 47°34' W 052°42'2 5.8
2016-Nov-24 02:00N 47°36' W 052°42'2 4.0 190 / 31009.6 2.9 3.0
2016-Nov-24 01:28N 47°34' W 052°42'0 0.0
2016-Nov-24 00:25N 47°34' W 052°42'2 5.1
2016-Nov-24 00:00N 47°36' W 052°42'0 0.0 200 / 31009.5 3.7 3.7
2016-Nov-23 23:00N 47°36' W 052°42'0 0.0 210 / 51009.0 4.3 4.3
2016-Nov-23 21:00N 47°36' W 052°42'0 0.0 200 / 61007.9 5.3 5.2
2016-Nov-23 20:00N 47°36' W 052°42'0 0.0 210 / 71006.8 6.5 6.5
2016-Nov-23 18:00N 47°36' W 052°42'0 0.0 220 / 81004.7 8.3 8.3
2016-Nov-23 16:00N 47°36' W 052°42'0 0.0 240 / 61003.5 9.6 9.7
2016-Nov-23 10:00N 47°36' W 052°42'2 1.2 220 / 31000.7 10.110.4
2016-Nov-23 08:16N 47°34' W 052°42'2 7.9
2016-Nov-23 08:00N 47°36' W 052°42'2 3.1 210 / 4999.7 9.910.2
2016-Nov-23 07:19N 47°34' W 052°42'0 0.0
2016-Nov-23 06:22N 47°34' W 052°42'2 5.8
2016-Nov-23 06:00N 47°36' W 052°42'0 0.0 220 / 31000.6 10.911.3
2016-Nov-23 04:00N 47°36' W 052°42'2 2.4 310 / 11001.7 9.710.1
2016-Nov-23 03:07N 47°34' W 052°42'218.0
2016-Nov-23 03:00N 47°36' W 052°42'0 0.0 070 / 91003.4 9.0 9.3
2016-Nov-23 01:00N 47°36' W 052°42'0 0.0 090 / 11005.8 9.910.3
2016-Nov-23 00:00N 47°36' W 052°42'0 0.0 360 / 21006.9 9.3 9.7
2016-Nov-22 23:00N 47°36' W 052°42'0 0.0 030 / 21007.1 10.010.4
2016-Nov-22 22:00N 47°36' W 052°42'0 0.0 050 / 51006.9 8.9 9.2
2016-Nov-22 21:00N 47°36' W 052°42'0 0.0 1007.5 12.913.2
2016-Nov-22 20:00N 47°36' W 052°42'0 0.0 230 / 11007.2 14.214.5
2016-Nov-22 19:00N 47°36' W 052°42'0 0.0 210 / 81007.3 15.115.4
2016-Nov-22 18:00N 47°36' W 052°42'4 4.0 210 / 91006.9 15.415.7
2016-Nov-22 17:00N 47°36' W 052°36'   160 / 161006.8 8.9 9.3

Dump ship's entire track history